Time;durP1;ratioP1;P1;durP2;ratioP2;P2;SDS_P1;SDS_P2;PMS_P1;PMS_P2;Temp;Humidity;BMP_temperature;BMP_pressure;BME280_temperature;BME280_humidity;BME280_pressure;Samples;Min_cycle;Max_cycle;Signal;HPM_P1;HPM_P2
2022/02/12 00:01:28;;;;;;;19.30;11.73;;;;;;;1.07;100.00;100898.28;5117384;28;20036;-73
2022/02/12 00:04:13;;;;;;;18.52;11.05;;;;;;;0.98;100.00;100887.66;5116610;28;20036;-73
2022/02/12 00:06:57;;;;;;;22.25;12.48;;;;;;;1.00;100.00;100929.84;5117362;28;20043;-73
2022/02/12 00:09:41;;;;;;;16.15;9.88;;;;;;;0.96;100.00;100929.72;5116744;28;20043;-73
2022/02/12 00:12:26;;;;;;;21.83;10.40;;;;;;;1.01;100.00;100941.94;5116654;28;20047;-73
2022/02/12 00:15:11;;;;;;;16.27;9.48;;;;;;;1.01;100.00;100952.28;5117052;28;20047;-73
2022/02/12 00:17:56;;;;;;;16.15;10.05;;;;;;;0.92;100.00;100949.38;5116992;28;20046;-73
2022/02/12 00:20:41;;;;;;;18.58;9.45;;;;;;;0.95;100.00;100969.25;5117008;28;20043;-73
2022/02/12 00:23:25;;;;;;;16.42;9.60;;;;;;;0.84;100.00;100968.88;5116883;28;20047;-73
2022/02/12 00:26:10;;;;;;;15.10;8.90;;;;;;;0.89;100.00;100975.09;5116251;28;20036;-72
2022/02/12 00:28:54;;;;;;;18.38;9.00;;;;;;;0.77;100.00;100980.72;5116298;28;20101;-73
2022/02/12 00:31:39;;;;;;;22.77;11.13;;;;;;;0.66;100.00;100984.66;5116157;28;20448;-72
2022/02/12 00:34:23;;;;;;;15.52;8.77;;;;;;;0.67;100.00;100982.09;5101696;28;20418;-72
2022/02/12 00:37:08;;;;;;;18.98;10.57;;;;;;;0.71;100.00;101001.13;5116758;28;20437;-72
2022/02/12 00:39:52;;;;;;;16.67;9.18;;;;;;;0.67;100.00;101004.44;5087437;28;20052;-73
2022/02/12 00:42:36;;;;;;;21.42;10.38;;;;;;;0.70;100.00;101014.88;5115976;28;20039;-73
2022/02/12 00:45:21;;;;;;;13.75;8.68;;;;;;;0.58;100.00;101012.72;5116664;28;20043;-72
2022/02/12 00:48:05;;;;;;;15.73;9.20;;;;;;;0.58;100.00;101004.13;5115880;28;20054;-73
2022/02/12 00:50:50;;;;;;;16.60;7.40;;;;;;;0.46;100.00;101013.19;5115817;28;20040;-72
2022/02/12 00:53:35;;;;;;;11.80;7.07;;;;;;;0.44;100.00;101009.69;5116012;28;20278;-73
2022/02/12 00:56:19;;;;;;;14.50;6.55;;;;;;;0.45;100.00;101029.47;5115725;28;20047;-73
2022/02/12 00:59:04;;;;;;;10.00;5.93;;;;;;;0.33;100.00;101025.63;5116438;28;20043;-72
2022/02/12 01:01:48;;;;;;;11.63;5.50;;;;;;;0.39;100.00;101029.28;5115795;28;20051;-72
2022/02/12 01:04:33;;;;;;;16.73;6.82;;;;;;;0.25;100.00;101038.19;5115647;28;20043;-72
2022/02/12 01:07:17;;;;;;;13.25;5.88;;;;;;;0.31;100.00;101055.59;5115599;28;20079;-73
2022/02/12 01:10:02;;;;;;;12.45;5.25;;;;;;;0.28;100.00;101046.06;5115586;28;20092;-73
2022/02/12 01:12:46;;;;;;;10.63;5.57;;;;;;;0.20;100.00;101048.34;5101384;28;20115;-73
2022/02/12 01:15:34;;;;;;;12.18;4.95;;;;;;;0.09;100.00;101048.78;5116539;28;20101;-73
2022/02/12 01:18:18;;;;;;;10.45;5.25;;;;;;;0.03;100.00;101057.16;5115132;28;20392;-73
2022/02/12 01:21:03;;;;;;;11.65;5.70;;;;;;;0.08;100.00;101063.38;5115992;28;20040;-73
2022/02/12 01:23:48;;;;;;;11.57;4.80;;;;;;;0.05;100.00;101068.41;5116538;28;20493;-73
2022/02/12 01:26:33;;;;;;;19.23;5.60;;;;;;;-0.07;100.00;101057.63;5120411;28;20114;-73
2022/02/12 01:29:19;;;;;;;14.30;4.95;;;;;;;-0.12;100.00;101064.31;5119597;28;20039;-73
2022/02/12 01:32:06;;;;;;;12.55;4.07;;;;;;;-0.05;100.00;101067.19;5090928;28;20055;-73
2022/02/12 01:34:51;;;;;;;9.40;4.18;;;;;;;-0.07;100.00;101073.94;5120392;28;20102;-73
2022/02/12 01:37:36;;;;;;;13.73;4.60;;;;;;;-0.13;100.00;101078.00;5119440;28;20044;-73
2022/02/12 01:40:24;;;;;;;9.77;4.00;;;;;;;-0.31;100.00;101070.44;5119409;28;20050;-73
2022/02/12 01:43:11;;;;;;;15.40;4.63;;;;;;;-0.33;100.00;101066.94;5120068;28;20047;-73
2022/02/12 01:45:55;;;;;;;14.38;4.72;;;;;;;-0.41;100.00;101055.47;5119333;28;20323;-73
2022/02/12 01:48:42;;;;;;;10.93;4.05;;;;;;;-0.35;100.00;101089.19;5119352;28;20360;-73
2022/02/12 01:51:27;;;;;;;13.60;4.65;;;;;;;-0.33;100.00;101090.09;5119950;28;20036;-73
2022/02/12 01:54:11;;;;;;;7.03;3.80;;;;;;;-0.41;100.00;101087.25;5119150;28;20035;-72
2022/02/12 01:56:59;;;;;;;12.38;4.05;;;;;;;-0.47;100.00;101090.44;5104866;28;20044;-73
2022/02/12 01:59:44;;;;;;;7.18;3.92;;;;;;;-0.50;100.00;101095.47;5119708;28;20044;-73
2022/02/12 02:02:29;;;;;;;12.90;3.47;;;;;;;-0.51;100.00;101088.56;5119783;28;20040;-73
2022/02/12 02:05:15;;;;;;;6.32;3.92;;;;;;;-0.57;100.00;101098.63;5104610;28;20104;-73
2022/02/12 02:08:00;;;;;;;15.18;4.30;;;;;;;-0.55;100.00;101104.72;5119067;28;20122;-73
2022/02/12 02:10:45;;;;;;;11.32;3.90;;;;;;;-0.69;100.00;101092.09;5119605;28;20046;-73
2022/02/12 02:13:29;;;;;;;10.80;3.33;;;;;;;-0.63;100.00;101100.94;5118859;28;20054;-73
2022/02/12 02:16:14;;;;;;;9.18;3.10;;;;;;;-0.55;100.00;101119.28;5119423;28;20044;-73
2022/02/12 02:18:59;;;;;;;7.65;3.15;;;;;;;-0.65;100.00;101138.63;5118750;28;20159;-73
2022/02/12 02:21:46;;;;;;;11.65;3.47;;;;;;;-0.74;100.00;101133.09;5119191;28;20052;-73
2022/02/12 02:24:31;;;;;;;9.98;3.70;;;;;;;-0.73;100.00;101142.56;5119476;28;20043;-73
2022/02/12 02:27:18;;;;;;;19.75;5.43;;;;;;;-0.73;100.00;101137.41;5118506;28;20101;-73
2022/02/12 02:30:02;;;;;;;10.43;4.25;;;;;;;-0.82;100.00;101152.44;5119197;28;20036;-73
2022/02/12 02:32:47;;;;;;;10.55;3.60;;;;;;;-0.88;100.00;101137.63;5118540;28;20047;-73
2022/02/12 02:35:32;;;;;;;12.55;4.90;;;;;;;-0.77;100.00;101153.53;5118592;28;20044;-73
2022/02/12 02:38:17;;;;;;;9.18;3.95;;;;;;;-0.81;100.00;101146.50;5103862;28;20035;-73
2022/02/12 02:41:01;;;;;;;14.32;3.95;;;;;;;-0.74;100.00;101153.66;5118343;28;20053;-73
2022/02/12 02:43:46;;;;;;;12.57;3.88;;;;;;;-0.89;100.00;101150.44;5119134;28;20046;-73
2022/02/12 02:46:30;;;;;;;9.32;4.57;;;;;;;-0.83;100.00;101164.44;5118226;28;20122;-73
2022/02/12 02:49:14;;;;;;;11.73;4.38;;;;;;;-0.87;100.00;101165.13;5118067;28;20039;-73
2022/02/12 02:55:59;;;;;;;10.55;4.25;;;;;;;-0.89;100.00;101182.19;5118645;28;20036;-73
2022/02/12 02:58:08;;;;;;;11.80;3.05;;;;;;;-0.90;100.00;101183.00;5118528;28;20381;-73
2022/02/12 03:00:54;;;;;;;10.70;4.15;;;;;;;-0.87;100.00;101190.00;5103455;28;20100;-73
2022/02/12 03:03:40;;;;;;;18.38;4.90;;;;;;;-0.98;100.00;101192.94;5117975;28;20126;-73
2022/02/12 03:06:26;;;;;;;11.50;4.45;;;;;;;-1.04;100.00;101191.81;5117789;28;20399;-73
2022/02/12 03:09:10;;;;;;;13.10;4.55;;;;;;;-0.98;100.00;101205.81;5103208;28;20126;-73
2022/02/12 03:11:55;;;;;;;10.63;3.80;;;;;;;-0.98;100.00;101210.06;5117738;28;20091;-73
2022/02/12 03:14:40;;;;;;;9.23;3.42;;;;;;;-0.98;100.00;101202.34;5118380;28;20040;-73
2022/02/12 03:17:24;;;;;;;9.02;4.00;;;;;;;-1.00;100.00;101222.88;5118236;28;20043;-73
2022/02/12 03:20:09;;;;;;;12.52;4.97;;;;;;;-1.10;100.00;101215.59;5118238;28;20040;-73
2022/02/12 03:22:55;;;;;;;8.57;3.83;;;;;;;-1.07;100.00;101213.16;5118121;28;20052;-73
2022/02/12 03:25:39;;;;;;;11.43;4.28;;;;;;;-1.06;100.00;101234.59;5117354;28;20068;-73
2022/02/12 03:28:24;;;;;;;10.20;3.85;;;;;;;-1.12;100.00;101236.91;5117981;28;20055;-73
2022/02/12 03:31:09;;;;;;;16.08;4.68;;;;;;;-1.19;100.00;101234.03;5117936;28;20498;-73
2022/02/12 03:33:54;;;;;;;13.27;5.28;;;;;;;-1.13;100.00;101241.16;5117301;28;20036;-73
2022/02/12 03:36:38;;;;;;;10.65;4.85;;;;;;;-1.03;100.00;101248.47;5117189;28;20040;-73
2022/02/12 03:39:22;;;;;;;11.30;4.47;;;;;;;-1.01;100.00;101253.66;5117731;28;20050;-73
2022/02/12 03:42:06;;;;;;;18.45;6.20;;;;;;;-1.07;100.00;101243.09;5116993;28;20067;-73
2022/02/12 03:44:51;;;;;;;11.23;5.78;;;;;;;-0.99;100.00;101258.06;5117783;28;20044;-73
2022/02/12 03:47:36;;;;;;;18.38;6.00;;;;;;;-1.01;100.00;101258.81;5116855;28;20039;-73
2022/02/12 03:50:21;;;;;;;12.70;7.32;;;;;;;-1.03;100.00;101256.19;5117522;28;20394;-73
2022/02/12 03:53:07;;;;;;;20.00;7.20;;;;;;;-0.95;100.00;101265.09;5117530;28;20036;-73
2022/02/12 03:55:52;;;;;;;15.65;8.27;;;;;;;-0.88;100.00;101270.53;5116863;28;20055;-73
2022/02/12 03:58:36;;;;;;;20.23;10.80;;;;;;;-0.84;100.00;101275.91;5117420;28;20388;-73
2022/02/12 04:01:20;;;;;;;16.02;8.60;;;;;;;-0.77;100.00;101274.47;5102355;28;20048;-73
2022/02/12 04:04:05;;;;;;;16.08;9.63;;;;;;;-0.68;100.00;101276.53;5116566;28;20039;-73
2022/02/12 04:06:49;;;;;;;18.80;9.30;;;;;;;-0.74;100.00;101274.59;5117319;28;20043;-73
2022/02/12 04:09:34;;;;;;;19.40;8.77;;;;;;;-0.82;100.00;101251.09;5116607;28;20051;-73
2022/02/12 04:12:18;;;;;;;20.25;9.27;;;;;;;-0.64;100.00;101287.06;5117273;28;20047;-73
2022/02/12 04:15:03;;;;;;;15.20;9.00;;;;;;;-0.73;100.00;101260.91;5116403;28;20040;-73
2022/02/12 04:17:49;;;;;;;23.63;9.25;;;;;;;-0.65;100.00;101289.56;5117125;28;20056;-73
2022/02/12 04:20:33;;;;;;;20.70;9.95;;;;;;;-0.72;100.00;101280.69;5101965;28;20052;-73
2022/02/12 04:23:18;;;;;;;18.42;8.30;;;;;;;-0.70;100.00;101289.38;5116787;28;20055;-73
2022/02/12 04:26:05;;;;;;;27.90;11.40;;;;;;;-0.68;100.00;101302.28;5117058;28;20067;-73
2022/02/12 04:28:50;;;;;;;15.63;8.90;;;;;;;-0.80;100.00;101277.78;5117067;28;20043;-73
2022/02/12 04:31:34;;;;;;;19.45;9.00;;;;;;;-0.80;100.00;101284.63;5116133;28;20097;-73
2022/02/12 04:34:19;;;;;;;19.23;9.68;;;;;;;-0.71;100.00;101285.91;5116073;28;20059;-73
2022/02/12 04:37:03;;;;;;;23.17;9.68;;;;;;;-0.64;100.00;101307.66;5101862;28;20051;-73
2022/02/12 04:39:48;;;;;;;23.42;9.35;;;;;;;-0.67;100.00;101310.09;5116622;28;20040;-73
2022/02/12 04:42:32;;;;;;;22.88;9.68;;;;;;;-0.62;100.00;101299.97;5116831;28;20119;-73
2022/02/12 04:45:17;;;;;;;23.35;11.15;;;;;;;-0.68;100.00;101300.63;5115918;28;20140;-73
2022/02/12 04:48:01;;;;;;;30.45;15.02;;;;;;;-0.74;100.00;101313.22;5116658;28;20051;-73
2022/02/12 04:50:46;;;;;;;35.83;19.98;;;;;;;-0.66;100.00;101322.13;5116550;28;20039;-73
2022/02/12 04:53:30;;;;;;;52.88;27.77;;;;;;;-0.70;100.00;101320.25;5115755;28;20481;-73
2022/02/12 04:56:16;;;;;;;51.88;29.92;;;;;;;-0.72;100.00;101320.16;5115823;28;20047;-73
2022/02/12 04:59:01;;;;;;;58.05;30.38;;;;;;;-0.77;100.00;101316.53;5115526;28;20078;-73
2022/02/12 05:01:45;;;;;;;47.95;29.48;;;;;;;-0.79;100.00;101314.69;5116492;28;20036;-73
2022/02/12 05:04:30;;;;;;;28.73;15.88;;;;;;;-0.74;100.00;101315.78;5115720;28;20108;-74
2022/02/12 05:07:14;;;;;;;22.90;13.05;;;;;;;-0.75;100.00;101319.16;5101175;28;20088;-73
2022/02/12 05:09:59;;;;;;;24.38;10.45;;;;;;;-0.76;100.00;101326.00;5116354;28;20408;-73
2022/02/12 05:12:43;;;;;;;19.90;11.23;;;;;;;-0.81;100.00;101329.19;5115625;28;20353;-73
2022/02/12 05:15:27;;;;;;;20.10;10.85;;;;;;;-0.76;100.00;101325.13;5101258;28;20051;-73
2022/02/12 05:18:11;;;;;;;21.02;10.45;;;;;;;-0.84;100.00;101327.34;5115458;28;20047;-73
2022/02/12 05:20:56;;;;;;;20.75;10.52;;;;;;;-0.77;100.00;101331.09;5115356;28;20048;-74
2022/02/12 05:23:41;;;;;;;24.40;9.82;;;;;;;-0.69;100.00;101336.56;5116305;28;20039;-73
2022/02/12 05:26:27;;;;;;;21.25;10.15;;;;;;;-0.66;100.00;101341.84;5115423;28;20044;-74
2022/02/12 05:29:11;;;;;;;27.27;11.95;;;;;;;-0.73;100.00;101326.13;5101017;28;20388;-73
2022/02/12 05:31:56;;;;;;;22.48;9.68;;;;;;;-0.75;100.00;101338.06;5115542;28;20035;-74
2022/02/12 05:34:41;;;;;;;33.28;11.35;;;;;;;-0.93;100.00;101297.75;5115338;28;20046;-73
2022/02/12 05:37:25;;;;;;;26.10;9.88;;;;;;;-0.78;100.00;101329.28;5100985;28;20040;-73
2022/02/12 05:40:10;;;;;;;35.67;16.17;;;;;;;-0.82;100.00;101336.00;5116041;28;20044;-74
2022/02/12 05:42:54;;;;;;;24.98;13.90;;;;;;;-0.86;100.00;101336.69;5115335;28;20035;-74
2022/02/12 05:45:41;;;;;;;26.88;12.43;;;;;;;-0.75;100.00;101348.34;5115339;28;20081;-74
2022/02/12 05:48:26;;;;;;;39.40;15.70;;;;;;;-0.77;100.00;101351.66;5115290;28;20434;-74
2022/02/12 05:51:11;;;;;;;28.27;13.15;;;;;;;-0.72;100.00;101351.03;5115131;28;20040;-74
2022/02/12 05:53:55;;;;;;;21.50;10.45;;;;;;;-0.66;100.00;101357.28;5115101;28;20122;-74
2022/02/12 05:56:40;;;;;;;23.33;10.27;;;;;;;-0.81;100.00;101354.91;5115967;28;20040;-73
2022/02/12 05:59:24;;;;;;;24.67;11.43;;;;;;;-0.69;100.00;101367.44;5115666;28;20433;-74
2022/02/12 06:02:09;;;;;;;25.50;11.30;;;;;;;-0.71;100.00;101370.84;5100811;28;20036;-74
2022/02/12 06:04:53;;;;;;;21.20;9.95;;;;;;;-0.72;100.00;101379.34;5115321;28;20040;-74
2022/02/12 06:07:37;;;;;;;23.90;9.90;;;;;;;-0.68;100.00;101374.34;5115414;28;20345;-74
2022/02/12 06:10:22;;;;;;;29.92;10.57;;;;;;;-0.77;100.00;101367.09;5116977;28;20040;-73
2022/02/12 06:13:07;;;;;;;26.17;9.93;;;;;;;-0.67;100.00;101370.97;5117900;28;20047;-74
2022/02/12 06:15:51;;;;;;;33.70;15.57;;;;;;;-0.61;100.00;101376.41;5118261;28;20064;-73
2022/02/12 06:18:37;;;;;;;97.70;36.50;;;;;;;-0.57;100.00;101381.75;5119314;28;20049;-74
2022/02/12 06:21:21;;;;;;;550.13;179.23;;;;;;;-0.63;100.00;101372.88;5119512;28;20059;-74
2022/02/12 06:24:05;;;;;;;745.35;288.08;;;;;;;-0.57;100.00;101378.28;5114306;28;20035;-73
2022/02/12 06:26:56;;;;;;;580.20;231.70;;;;;;;-0.62;100.00;101380.63;5118245;28;20071;-74
2022/02/12 06:29:40;;;;;;;747.53;360.23;;;;;;;-0.64;100.00;101381.41;5118525;28;20044;-74
2022/02/12 06:32:24;;;;;;;402.60;191.63;;;;;;;-0.70;100.00;101389.72;5119219;28;20047;-74
2022/02/12 06:35:09;;;;;;;592.10;331.42;;;;;;;-0.76;100.00;101392.00;5118914;28;20062;-74
2022/02/12 06:37:56;;;;;;;116.53;69.07;;;;;;;-0.82;100.00;101402.03;5104248;28;20063;-74
2022/02/12 06:40:40;;;;;;;44.85;21.83;;;;;;;-0.90;100.00;101395.66;5118078;28;20421;-74
2022/02/12 06:43:25;;;;;;;46.30;25.20;;;;;;;-0.82;100.00;101408.03;5118289;28;20043;-73
2022/02/12 06:46:10;;;;;;;27.20;15.65;;;;;;;-0.96;100.00;101409.09;5117037;28;20401;-73
2022/02/12 06:48:54;;;;;;;22.67;13.13;;;;;;;-0.90;100.00;101421.38;5116838;28;20048;-74
2022/02/12 06:51:38;;;;;;;40.38;17.30;;;;;;;-0.82;100.00;101426.06;5116747;28;20043;-74
2022/02/12 06:54:23;;;;;;;152.38;55.58;;;;;;;-0.75;100.00;101428.13;5116920;28;20063;-76
2022/02/12 06:57:07;;;;;;;184.68;67.47;;;;;;;-0.68;100.00;101439.59;5116709;28;20035;-76
2022/02/12 06:59:51;;;;;;;166.25;66.78;;;;;;;-0.63;100.00;101435.50;5116605;28;20369;-76
2022/02/12 07:02:36;;;;;;;90.97;42.53;;;;;;;-0.38;100.00;101434.94;5116639;28;20048;-76
2022/02/12 07:05:21;;;;;;;62.75;29.17;;;;;;;-0.16;100.00;101428.16;5115674;28;20044;-76
2022/02/12 07:08:06;;;;;;;48.55;20.25;;;;;;;0.20;100.00;101452.09;5115780;28;20043;-76
2022/02/12 07:10:50;;;;;;;24.30;11.80;;;;;;;0.35;100.00;101454.41;5116605;28;20110;-76
2022/02/12 07:13:34;;;;;;;14.48;6.10;;;;;;;0.51;100.00;101461.09;5115729;28;20039;-76
2022/02/12 07:16:19;;;;;;;12.02;6.40;;;;;;;0.81;100.00;101466.63;5115649;28;20340;-76
2022/02/12 07:19:03;;;;;;;16.95;7.90;;;;;;;0.79;100.00;101466.59;5115502;28;20035;-76
2022/02/12 07:21:47;;;;;;;32.67;12.73;;;;;;;0.91;100.00;101472.25;5101835;28;20112;-76
2022/02/12 07:24:32;;;;;;;30.17;14.90;;;;;;;1.12;100.00;101479.09;5117844;28;20047;-76
2022/02/12 07:27:17;;;;;;;24.35;10.20;;;;;;;1.50;100.00;101471.97;5102881;28;20085;-76
2022/02/12 07:30:02;;;;;;;22.80;10.80;;;;;;;1.79;100.00;101468.75;5118244;28;20043;-76
2022/02/12 07:32:47;;;;;;;37.58;17.70;;;;;;;2.05;100.00;101472.28;5118425;28;20046;-76
2022/02/12 07:35:31;;;;;;;28.92;14.90;;;;;;;2.27;100.00;101470.44;5118095;28;20040;-76
2022/02/12 07:38:16;;;;;;;25.20;11.93;;;;;;;2.50;100.00;101482.50;5117245;28;20039;-76
2022/02/12 07:41:01;;;;;;;25.02;12.48;;;;;;;2.69;100.00;101490.88;5117876;28;20043;-76
2022/02/12 07:43:45;;;;;;;15.00;7.75;;;;;;;2.58;100.00;101480.16;5117526;28;20482;-76
2022/02/12 07:46:29;;;;;;;21.15;8.25;;;;;;;2.92;100.00;101473.50;5117561;28;20418;-77
2022/02/12 07:49:14;;;;;;;15.43;7.10;;;;;;;3.36;100.00;101484.41;5117660;28;20050;-77
2022/02/12 07:51:59;;;;;;;14.52;7.32;;;;;;;3.72;100.00;101489.81;5117691;28;20044;-77
2022/02/12 07:54:42;;;;;;;14.55;7.40;;;;;;;3.84;100.00;101484.13;5117031;28;20081;-77
2022/02/12 07:57:27;;;;;;;22.25;8.55;;;;;;;4.31;100.00;101502.72;5117361;28;20097;-77
2022/02/12 08:00:13;;;;;;;19.45;9.20;;;;;;;4.30;100.00;101503.56;5116965;28;20040;-77
2022/02/12 08:02:58;;;;;;;14.63;7.10;;;;;;;4.56;100.00;101496.47;5117798;28;20046;-77
2022/02/12 08:05:42;;;;;;;13.50;6.88;;;;;;;4.77;100.00;101484.03;5117581;28;20040;-77
2022/02/12 08:08:27;;;;;;;12.32;5.28;;;;;;;5.05;100.00;101476.91;5117768;28;20109;-77
2022/02/12 08:11:23;;;;;;;16.55;6.72;;;;;;;5.20;100.00;101507.56;5116875;28;20043;-77
2022/02/12 08:14:08;;;;;;;17.48;7.22;;;;;;;4.79;100.00;101508.31;5117216;28;20040;-77
2022/02/12 08:16:52;;;;;;;17.40;7.32;;;;;;;4.56;100.00;101486.09;5117144;28;20040;-77
2022/02/12 08:19:37;;;;;;;14.40;6.45;;;;;;;4.84;100.00;101501.53;5117230;28;20051;-77
2022/02/12 08:22:22;;;;;;;13.05;5.53;;;;;;;5.18;100.00;101504.06;5116559;28;20051;-77
2022/02/12 08:25:07;;;;;;;13.82;5.95;;;;;;;5.22;100.00;101511.09;5116470;28;20036;-78
2022/02/12 08:27:51;;;;;;;14.63;5.72;;;;;;;5.31;100.00;101519.97;5117652;28;20114;-78
2022/02/12 08:30:37;;;;;;;15.02;7.13;;;;;;;5.32;100.00;101518.25;5117306;28;20052;-78
2022/02/12 08:33:21;;;;;;;16.63;8.18;;;;;;;5.21;100.00;101522.34;5116823;28;20391;-78
2022/02/12 08:36:06;;;;;;;17.33;8.18;;;;;;;4.89;100.00;101531.06;5117023;28;20043;-78
2022/02/12 08:38:50;;;;;;;20.38;9.57;;;;;;;4.63;100.00;101533.00;5116645;28;20082;-78
2022/02/12 08:41:35;;;;;;;14.45;7.15;;;;;;;4.38;100.00;101538.34;5116619;28;20043;-78
2022/02/12 08:44:19;;;;;;;17.50;8.43;;;;;;;4.21;100.00;101532.69;5116071;28;20047;-78
2022/02/12 08:47:04;;;;;;;19.13;7.95;;;;;;;4.13;100.00;101539.41;5116717;28;20040;-78
2022/02/12 08:49:49;;;;;;;19.88;8.88;;;;;;;4.19;100.00;101534.38;5115632;28;20039;-78
2022/02/12 08:52:38;;;;;;;20.17;9.40;;;;;;;4.20;100.00;101538.75;5115876;28;20043;-77
2022/02/12 08:55:24;;;;;;;24.15;11.65;;;;;;;3.84;100.00;101533.38;5116494;28;20039;-77
2022/02/12 08:58:09;;;;;;;21.52;12.02;;;;;;;3.52;100.00;101530.69;5101263;28;20061;-78
2022/02/12 09:00:53;;;;;;;22.77;9.52;;;;;;;3.25;100.00;101528.97;5115594;28;20429;-78
2022/02/12 09:03:37;;;;;;;21.23;10.18;;;;;;;3.11;100.00;101532.81;5116765;28;20043;-78
2022/02/12 09:06:22;;;;;;;19.13;9.13;;;;;;;3.60;100.00;101530.91;5115478;28;20117;-77
2022/02/12 09:09:10;;;;;;;20.90;8.43;;;;;;;3.72;100.00;101529.56;5101217;28;20047;-77
2022/02/12 09:11:55;;;;;;;24.40;13.38;;;;;;;3.95;100.00;101525.06;5115668;28;20060;-78
2022/02/12 09:14:40;;;;;;;32.00;20.33;;;;;;;4.20;100.00;101526.63;5116177;28;20035;-77
2022/02/12 09:17:24;;;;;;;20.95;12.40;;;;;;;3.64;100.00;101537.91;5116137;28;20036;-78
2022/02/12 09:20:09;;;;;;;20.73;11.40;;;;;;;4.22;100.00;101547.41;5115626;28;20361;-77
2022/02/12 09:22:53;;;;;;;24.95;12.82;;;;;;;4.44;100.00;101526.44;5115049;28;20047;-78
2022/02/12 09:25:38;;;;;;;23.77;12.73;;;;;;;4.52;100.00;101537.03;5115269;28;20391;-78
2022/02/12 09:28:22;;;;;;;20.98;9.80;;;;;;;4.64;100.00;101542.53;5115142;28;20433;-78
2022/02/12 09:31:07;;;;;;;65.90;34.92;;;;;;;4.80;100.00;101550.72;5115137;28;20051;-78
2022/02/12 09:33:52;;;;;;;29.33;15.70;;;;;;;4.42;100.00;101529.84;5115604;28;20042;-77
2022/02/12 09:36:40;;;;;;;44.67;23.75;;;;;;;4.73;100.00;101535.84;5115621;28;20059;-78
2022/02/12 09:39:25;;;;;;;89.28;46.92;;;;;;;4.89;100.00;101540.59;5115266;28;20067;-78
2022/02/12 09:42:10;;;;;;;65.75;37.97;;;;;;;5.04;100.00;101537.50;5115297;28;20047;-85
2022/02/12 09:44:54;;;;;;;29.90;17.98;;;;;;;5.01;100.00;101548.69;5102276;28;20046;-82
2022/02/12 09:47:45;;;;;;;26.48;15.80;;;;;;;5.23;100.00;101538.81;5119138;28;20337;-87
2022/02/12 09:50:31;;;;;;;24.10;10.48;;;;;;;5.33;100.00;101539.09;5104700;28;20039;-86
2022/02/12 09:53:15;;;;;;;17.92;9.05;;;;;;;5.35;100.00;101541.72;5104697;28;20077;-85
2022/02/12 09:56:01;;;;;;;21.27;9.55;;;;;;;5.43;100.00;101550.59;5119312;28;20035;-86
2022/02/12 09:58:46;;;;;;;15.02;9.13;;;;;;;5.59;100.00;101547.50;5119912;28;20039;-85
2022/02/12 10:01:31;;;;;;;16.70;7.20;;;;;;;5.56;100.00;101542.22;5120104;28;20055;-85
2022/02/12 10:04:17;;;;;;;12.38;6.05;;;;;;;5.89;100.00;101561.16;5118880;28;20044;-85
2022/02/12 10:07:01;;;;;;;14.30;5.60;;;;;;;5.93;100.00;101565.59;5119357;28;20035;-86
2022/02/12 10:09:46;;;;;;;12.70;4.90;;;;;;;5.97;100.00;101560.47;5104794;28;20097;-85
2022/02/12 10:12:31;;;;;;;44.20;17.65;;;;;;;6.05;100.00;101556.34;5104382;28;20047;-85
2022/02/12 10:15:26;;;;;;;68.25;27.35;;;;;;;6.24;100.00;101561.91;5118649;28;20044;-83
2022/02/12 10:18:12;;;;;;;48.78;22.20;;;;;;;6.43;100.00;101555.34;5119146;28;20043;-83
2022/02/12 10:20:57;;;;;;;18.67;9.75;;;;;;;6.40;100.00;101550.97;5118392;28;20361;-81
2022/02/12 10:23:44;;;;;;;23.77;11.38;;;;;;;6.33;100.00;101534.34;5118929;28;20473;-81
2022/02/12 10:26:31;;;;;;;22.35;9.68;;;;;;;6.30;100.00;101549.00;5104545;28;20050;-82
2022/02/12 10:29:18;;;;;;;20.15;8.90;;;;;;;6.33;100.00;101539.53;5119521;28;20048;-82
2022/02/12 10:32:03;;;;;;;17.02;7.85;;;;;;;6.52;100.00;101552.91;5119088;28;20046;-82
2022/02/12 10:34:49;;;;;;;15.55;7.20;;;;;;;6.74;100.00;101552.47;5119214;28;20046;-82
2022/02/12 10:37:41;;;;;;;19.63;6.57;;;;;;;6.80;100.00;101554.31;5119038;28;20393;-82
2022/02/12 10:40:27;;;;;;;15.10;6.97;;;;;;;6.78;100.00;101545.59;5116910;28;20051;-82
2022/02/12 10:43:13;;;;;;;14.60;8.20;;;;;;;6.54;100.00;101543.44;5116194;28;20455;-80
2022/02/12 10:46:00;;;;;;;19.70;9.82;;;;;;;6.45;100.00;101538.91;5118207;28;20040;-83
2022/02/12 10:48:49;;;;;;;56.80;34.00;;;;;;;6.23;100.00;101539.34;5117969;28;20047;-82
2022/02/12 10:51:43;;;;;;;58.97;37.63;;;;;;;6.28;100.00;101533.38;5117802;28;20052;-82
2022/02/12 10:54:48;;;;;;;43.28;25.60;;;;;;;6.33;100.00;101531.72;5117883;28;20051;-79
2022/02/12 10:57:38;;;;;;;32.80;17.33;;;;;;;6.32;100.00;101514.38;5118535;28;20379;-78
2022/02/12 11:00:25;;;;;;;27.77;16.25;;;;;;;6.30;100.00;101531.69;5102832;28;20081;-83
2022/02/12 11:03:12;;;;;;;29.00;15.85;;;;;;;6.59;100.00;101527.88;5103490;28;20115;-83
2022/02/12 11:05:57;;;;;;;33.13;20.02;;;;;;;6.65;100.00;101525.41;5118526;28;20434;-84
2022/02/12 11:08:42;;;;;;;18.40;9.65;;;;;;;6.82;100.00;101529.16;5118221;28;20048;-81
2022/02/12 11:11:27;;;;;;;26.08;13.75;;;;;;;6.83;100.00;101548.31;5103257;28;20169;-79
2022/02/12 11:14:13;;;;;;;57.05;35.65;;;;;;;6.49;100.00;101537.25;5117681;28;20059;-79
2022/02/12 11:16:58;;;;;;;147.07;99.20;;;;;;;6.28;100.00;101507.34;5117343;28;20123;-79
2022/02/12 11:19:44;;;;;;;47.88;27.95;;;;;;;6.55;100.00;101527.81;5116423;28;20095;-80
2022/02/12 11:22:30;;;;;;;14.75;7.78;;;;;;;6.42;100.00;101518.03;5103724;28;20047;-81
2022/02/12 11:25:36;;;;;;;10.75;4.50;;;;;;;6.17;100.00;101510.59;5103504;28;20039;-80
2022/02/12 11:28:31;;;;;;;17.02;7.18;;;;;;;6.33;100.00;101510.03;5117706;28;20044;-79
2022/02/12 11:31:24;;;;;;;20.98;10.32;;;;;;;6.58;100.00;101513.13;5117464;28;20044;-80
2022/02/12 11:34:13;;;;;;;18.10;9.18;;;;;;;6.62;100.00;101513.19;5117624;28;20366;-81
2022/02/12 11:37:12;;;;;;;19.02;8.07;;;;;;;6.39;100.00;101475.44;5117113;28;20040;-83
2022/02/12 11:40:15;;;;;;;21.63;11.10;;;;;;;6.58;100.00;101507.91;5115085;28;20035;-83
2022/02/12 11:43:05;;;;;;;10.32;5.47;;;;;;;6.82;100.00;101495.31;5115089;28;20042;-84
2022/02/12 11:45:51;;;;;;;16.02;7.97;;;;;;;6.80;100.00;101491.81;5100738;28;20046;-85
2022/02/12 11:48:38;;;;;;;9.90;4.65;;;;;;;6.91;100.00;101499.81;5114993;28;20043;-83
2022/02/12 11:51:30;;;;;;;18.02;7.60;;;;;;;7.00;100.00;101500.81;5114821;28;20039;-84
2022/02/12 11:55:00;;;;;;;12.52;5.00;;;;;;;7.11;100.00;101503.59;5100944;28;20057;-83
2022/02/12 11:57:45;;;;;;;32.13;15.30;;;;;;;7.25;100.00;101494.28;5117345;28;20040;-84
2022/02/12 12:00:34;;;;;;;14.23;7.50;;;;;;;7.24;100.00;101486.44;5103288;28;20052;-84
2022/02/12 12:03:18;;;;;;;15.88;7.95;;;;;;;7.20;100.00;101493.31;5116612;28;20035;-83
2022/02/12 12:06:22;;;;;;;11.00;4.47;;;;;;;7.08;100.00;101468.81;5116555;28;20071;-84
2022/02/12 12:09:12;;;;;;;12.05;5.47;;;;;;;7.29;100.00;101492.59;5115935;28;20048;-83
2022/02/12 12:12:22;;;;;;;24.40;11.05;;;;;;;7.34;100.00;101485.72;5117007;28;20422;-83
2022/02/12 12:15:20;;;;;;;16.67;9.18;;;;;;;7.43;100.00;101475.41;5116403;28;20040;-84
2022/02/12 12:18:07;;;;;;;37.80;18.02;;;;;;;7.34;97.74;101464.84;5116543;28;20039;-83
2022/02/12 12:20:52;;;;;;;28.45;16.13;;;;;;;7.28;98.35;101456.06;5102326;28;20433;-84
2022/02/12 12:23:38;;;;;;;7.80;5.13;;;;;;;7.13;92.79;101454.13;5115257;28;20096;-83
2022/02/12 12:26:41;;;;;;;11.95;5.93;;;;;;;7.21;94.00;101461.22;5116098;28;20104;-83
2022/02/12 12:32:34;;;;;;;9.68;5.03;;;;;;;6.96;96.72;101444.31;5116738;28;20040;-83
2022/02/12 12:35:19;;;;;;;18.52;7.22;;;;;;;6.69;99.25;101438.66;5116416;28;20444;-84
2022/02/12 12:38:07;;;;;;;21.00;7.85;;;;;;;6.63;100.00;101436.84;5078704;28;20430;-84
2022/02/12 12:40:51;;;;;;;13.85;5.60;;;;;;;6.65;100.00;101442.94;5101288;28;20070;-84
2022/02/12 12:43:35;;;;;;;18.15;7.32;;;;;;;6.68;100.00;101439.53;5116445;28;20425;-83